首页
METAR-TAF:

METAR-TAF

机场 :

波纳佩国际机场

波纳佩, 密克罗尼西亚群岛

纬度: 06-59N, 经度: 158-12E, 海拔: 2米

当前天气观测

该预报发布于36分钟前的04:50 UTC
风速5节,风向西北
温度 32°C
湿度 71%
气压 1008 hPa
能見度: 24.1公里
散云层高于1800英尺, 塔状积云.
多云层高于13000英尺
阴天层高于30000英尺

METAR: PTPN 190450Z 31005KT 15SM SCT018TCU BKN130 OVC300 32/26 A2977 RMK TCU SE

时间: 16:26 (05:26 UTC)

预报

该预报发布于3小时和19分钟前的02:07 UTC
预报有效从19日的 02点(UTC)到 19日的 24点(UTC)
风速7节,风向
能見度: 10公里
多云层高于1800英尺
多云层高于13000英尺
附近有阵雨
从 19日的 0700点(UTC)
风速5节,风向多变
能見度: 10公里
散云层高于1800英尺
散云层高于13000英尺

TAF: PTPN 190207Z 1902/1924 19007KT P6SM VCSH BKN018 BKN130 FM190700 VRB05KT P6SM SCT018 SCT130

超过4000个机场的气象观测和天气预报(METAR&TAF报告)。

可查询的气象台以黄色和红色小点在地图上表示。

将鼠标移到小点上方,可查看气象台名称。

然后点击查看天气观测和预报。

如需切换地图:点击带黑十字的绿色按钮放大地图;点击带横线的绿色按钮缩小地图;或者点击绿色箭头查看邻近地区的地图。


METAR-TAF: